Terminal Aerodrome Forecast
Issued by NWS Blacksburg, VA

Home | Current Version | Previous Version | Text Only | Print | Product List | Glossary On
Versions: 1 2 3 4 5 6 7 8 9 10 11 12 13 14 15 16 17 18 19 20 21 22
000
FTUS41 KRNK 242338
TAFLYH
TAF
KLYH 242338Z 2500/2524 08008KT 2SM SHRA BR OVC002
     FM250600 14007KT 4SM SHRA OVC008
     FM250800 17006KT 5SM BR OVC015
     FM251200 23004KT 5SM BR BKN080
     FM251400 24005KT P6SM BKN060
     FM251900 22009KT P6SM VCSH BKN060=

USA.gov is the U.S. government's official web portal to all federal, state and local government web resources and services.